createdAt,value
2023-02-19T00:01:54.639Z,96903.63
2023-02-19T00:04:23.836Z,96888.63
2023-02-19T00:06:52.428Z,96893.06
2023-02-19T00:09:22.805Z,96884.16
2023-02-19T00:11:51.400Z,96891.03
2023-02-19T00:14:21.902Z,96887.50
2023-02-19T00:16:50.973Z,96883.00
2023-02-19T00:19:20.970Z,96885.78
2023-02-19T00:21:51.980Z,96886.69
2023-02-19T00:24:22.081Z,96885.47
2023-02-19T00:26:50.556Z,96887.56
2023-02-19T00:29:21.305Z,96888.38
2023-02-19T00:31:50.025Z,96885.13
2023-02-19T00:34:18.489Z,96888.59
2023-02-19T00:36:47.089Z,96890.81
2023-02-19T00:39:18.838Z,96885.66
2023-02-19T00:41:48.898Z,96892.78
2023-02-19T00:44:17.978Z,96887.69
2023-02-19T00:46:49.820Z,96885.78
2023-02-19T00:49:22.250Z,96877.97
2023-02-19T00:51:52.272Z,96878.53
2023-02-19T00:54:22.813Z,96877.19
2023-02-19T00:56:52.631Z,96878.59
2023-02-19T00:59:20.770Z,96871.47
2023-02-19T01:01:49.931Z,96864.19
2023-02-19T01:04:19.561Z,96861.25
2023-02-19T01:06:48.942Z,96864.69
2023-02-19T01:09:17.033Z,96851.22
2023-02-19T01:11:45.489Z,96855.94
2023-02-19T01:14:15.257Z,96855.44
2023-02-19T01:16:43.566Z,96839.38
2023-02-19T01:19:12.390Z,96839.97
2023-02-19T01:21:41.674Z,96835.81
2023-02-19T01:24:11.399Z,96829.03
2023-02-19T01:26:40.925Z,96823.47
2023-02-19T01:29:10.352Z,96811.72
2023-02-19T01:31:42.160Z,96815.75
2023-02-19T01:34:12.501Z,96814.91
2023-02-19T01:36:41.413Z,96809.41
2023-02-19T01:39:10.522Z,96804.78
2023-02-19T01:41:41.635Z,96801.13
2023-02-19T01:44:48.838Z,96798.53
2023-02-19T01:47:21.426Z,96793.91
2023-02-19T01:49:54.181Z,96791.06
2023-02-19T01:52:27.230Z,96791.22
2023-02-19T01:54:56.876Z,96790.66
2023-02-19T01:57:28.049Z,96793.19
2023-02-19T02:00:00.715Z,96785.28
2023-02-19T02:02:31.080Z,96787.50
2023-02-19T02:05:01.391Z,96781.88
2023-02-19T02:07:47.649Z,96775.75
2023-02-19T02:10:22.366Z,96782.06
2023-02-19T02:12:52.411Z,96779.44
2023-02-19T02:15:22.655Z,96773.94
2023-02-19T02:17:58.977Z,96766.78
2023-02-19T02:21:00.486Z,96775.66
2023-02-19T02:23:41.707Z,96747.38
2023-02-19T02:26:32.061Z,96754.41
2023-02-19T02:29:23.209Z,96754.03
2023-02-19T02:31:58.356Z,96747.16
2023-02-19T02:34:36.164Z,96741.38
2023-02-19T02:37:05.755Z,96740.00
2023-02-19T02:39:34.436Z,96740.81
2023-02-19T02:42:16.922Z,96732.34
2023-02-19T02:45:06.353Z,96736.09
2023-02-19T02:47:43.263Z,96729.28
2023-02-19T02:50:16.769Z,96725.84
2023-02-19T02:53:04.740Z,96722.84
2023-02-19T02:55:40.020Z,96708.44
2023-02-19T02:58:09.244Z,96714.38
2023-02-19T03:00:52.993Z,96717.94
2023-02-19T03:03:26.637Z,96720.81
2023-02-19T03:06:02.969Z,96716.06
2023-02-19T03:08:35.859Z,96701.31
2023-02-19T03:11:20.873Z,96701.09
2023-02-19T03:14:09.636Z,96700.84
2023-02-19T03:16:58.655Z,96693.94
2023-02-19T03:19:30.171Z,96695.88
2023-02-19T03:22:03.261Z,96706.50
2023-02-19T03:24:54.129Z,96691.28
2023-02-19T03:27:24.826Z,96679.66
2023-02-19T03:29:58.216Z,96683.97
2023-02-19T03:32:31.526Z,96681.41
2023-02-19T03:35:06.500Z,96683.44
2023-02-19T03:37:43.012Z,96683.00
2023-02-19T03:40:12.168Z,96680.84
2023-02-19T03:42:48.843Z,96680.81
2023-02-19T03:45:35.090Z,96670.16
2023-02-19T03:48:14.149Z,96664.72
2023-02-19T03:50:50.097Z,96670.41
2023-02-19T03:53:28.348Z,96666.41
2023-02-19T03:56:09.461Z,96660.41
2023-02-19T03:58:53.329Z,96668.31
2023-02-19T04:01:29.458Z,96666.25
2023-02-19T04:04:02.821Z,96670.81
2023-02-19T04:06:35.066Z,96664.06
2023-02-19T04:09:07.826Z,96659.34
2023-02-19T04:11:38.103Z,96659.22
2023-02-19T04:14:12.384Z,96661.19
2023-02-19T04:16:45.360Z,96652.75
2023-02-19T04:19:17.691Z,96646.88
2023-02-19T04:21:48.447Z,96640.66
2023-02-19T04:24:23.271Z,96649.78
2023-02-19T04:26:51.526Z,96642.38
2023-02-19T04:29:19.970Z,96651.13
2023-02-19T04:31:48.390Z,96655.25
2023-02-19T04:34:16.543Z,96648.56
2023-02-19T04:36:44.693Z,96641.97
2023-02-19T04:39:14.230Z,96646.25
2023-02-19T04:41:43.022Z,96638.56
2023-02-19T04:44:10.873Z,96641.13
2023-02-19T04:46:39.967Z,96638.41
2023-02-19T04:49:10.093Z,96630.34
2023-02-19T04:51:38.163Z,96628.31
2023-02-19T04:54:07.113Z,96618.47
2023-02-19T04:56:36.829Z,96624.28
2023-02-19T04:59:05.468Z,96615.09
2023-02-19T05:01:33.584Z,96615.19
2023-02-19T05:04:01.839Z,96615.41
2023-02-19T05:06:30.009Z,96612.03
2023-02-19T05:08:58.356Z,96616.72
2023-02-19T05:11:26.883Z,96607.78
2023-02-19T05:13:57.822Z,96601.97
2023-02-19T05:16:26.662Z,96609.50
2023-02-19T05:18:55.207Z,96601.22
2023-02-19T05:21:23.514Z,96605.19
2023-02-19T05:23:51.349Z,96601.34
2023-02-19T05:26:22.320Z,96614.69
2023-02-19T05:28:52.676Z,96613.16
2023-02-19T05:31:22.879Z,96603.16
2023-02-19T05:33:53.184Z,96603.50
2023-02-19T05:36:22.510Z,96600.59
2023-02-19T05:38:54.448Z,96590.72
2023-02-19T05:41:24.243Z,96591.22
2023-02-19T05:43:53.003Z,96594.31
2023-02-19T05:46:24.971Z,96587.44
2023-02-19T05:48:55.010Z,96584.44
2023-02-19T05:51:25.689Z,96606.59
2023-02-19T05:53:54.446Z,96612.78
2023-02-19T05:56:28.967Z,96630.50
2023-02-19T05:58:57.335Z,96634.97
2023-02-19T06:01:29.403Z,96637.78
2023-02-19T06:03:58.049Z,96619.47
2023-02-19T06:06:27.255Z,96622.00
2023-02-19T06:08:56.148Z,96623.91
2023-02-19T06:11:25.275Z,96618.91
2023-02-19T06:13:53.893Z,96625.38
2023-02-19T06:16:22.065Z,96628.72
2023-02-19T06:18:52.025Z,96629.75
2023-02-19T06:21:20.893Z,96638.38
2023-02-19T06:23:49.063Z,96632.72
2023-02-19T06:26:19.987Z,96630.03
2023-02-19T06:28:49.601Z,96626.28
2023-02-19T06:31:18.689Z,96623.84
2023-02-19T06:33:47.340Z,96629.84
2023-02-19T06:36:18.445Z,96633.34
2023-02-19T06:38:47.065Z,96644.16
2023-02-19T06:41:16.331Z,96642.63
2023-02-19T06:43:44.757Z,96643.81
2023-02-19T06:46:14.310Z,96641.72
2023-02-19T06:48:43.756Z,96649.00
2023-02-19T06:51:13.729Z,96648.16
2023-02-19T06:53:43.706Z,96663.88
2023-02-19T06:56:24.708Z,96648.56
2023-02-19T06:58:53.614Z,96651.38
2023-02-19T07:01:22.357Z,96638.69
2023-02-19T07:03:51.230Z,96643.03
2023-02-19T07:06:19.799Z,96645.72
2023-02-19T07:08:49.294Z,96653.66
2023-02-19T07:11:18.741Z,96655.34
2023-02-19T07:13:46.884Z,96651.53
2023-02-19T07:16:15.718Z,96657.81
2023-02-19T07:18:43.876Z,96665.72
2023-02-19T07:21:13.984Z,96668.22
2023-02-19T07:23:43.142Z,96668.09
2023-02-19T07:26:15.980Z,96673.13
2023-02-19T07:28:45.636Z,96676.22
2023-02-19T07:31:14.366Z,96694.84
2023-02-19T07:33:44.434Z,96688.56
2023-02-19T07:36:13.298Z,96699.25
2023-02-19T07:38:41.365Z,96698.06
2023-02-19T07:41:10.070Z,96707.19
2023-02-19T07:43:40.780Z,96708.69
2023-02-19T07:46:10.939Z,96715.78
2023-02-19T07:48:40.807Z,96724.75
2023-02-19T07:51:12.085Z,96744.75
2023-02-19T07:53:40.640Z,96766.03
2023-02-19T07:56:09.284Z,96773.66
2023-02-19T07:58:37.575Z,96783.38
2023-02-19T08:01:14.968Z,96779.56
2023-02-19T08:03:42.930Z,96788.91
2023-02-19T08:06:12.188Z,96785.91
2023-02-19T08:08:40.563Z,96791.88
2023-02-19T08:11:26.921Z,96790.50
2023-02-19T08:13:54.947Z,96797.03
2023-02-19T08:16:40.862Z,96788.41
2023-02-19T08:19:10.622Z,96800.41
2023-02-19T08:21:38.683Z,96802.69
2023-02-19T08:24:07.178Z,96801.47
2023-02-19T08:26:35.652Z,96802.69
2023-02-19T08:29:04.185Z,96815.38
2023-02-19T08:31:34.330Z,96832.09
2023-02-19T08:34:02.893Z,96831.13
2023-02-19T08:36:31.318Z,96833.56
2023-02-19T08:38:59.284Z,96848.41
2023-02-19T08:41:27.481Z,96849.44
2023-02-19T08:43:55.446Z,96852.97
2023-02-19T08:46:23.752Z,96864.41
2023-02-19T08:48:53.468Z,96872.50
2023-02-19T08:51:21.504Z,96873.50
2023-02-19T08:53:49.693Z,96883.28
2023-02-19T08:56:18.658Z,96894.06
2023-02-19T08:58:46.886Z,96899.72
2023-02-19T09:01:16.731Z,96896.78
2023-02-19T09:03:45.501Z,96911.91
2023-02-19T09:06:18.057Z,96914.66
2023-02-19T09:08:46.136Z,96922.19
2023-02-19T09:11:15.235Z,96923.78
2023-02-19T09:13:43.543Z,96930.75
2023-02-19T09:16:12.519Z,96935.03
2023-02-19T09:18:40.918Z,96940.38
2023-02-19T09:21:09.346Z,96945.09
2023-02-19T09:23:39.429Z,96954.19
2023-02-19T09:26:10.143Z,96954.38
2023-02-19T09:28:41.709Z,96970.25
2023-02-19T09:31:12.878Z,96984.66
2023-02-19T09:33:43.692Z,96987.94
2023-02-19T09:36:12.198Z,97009.88
2023-02-19T09:38:41.818Z,97007.78
2023-02-19T09:41:16.658Z,97029.44
2023-02-19T09:43:45.505Z,97036.41
2023-02-19T09:46:25.252Z,97040.47
2023-02-19T09:48:55.730Z,97049.50
2023-02-19T09:51:25.939Z,97044.97
2023-02-19T09:53:57.540Z,97048.69
2023-02-19T09:56:27.141Z,97054.59
2023-02-19T09:58:58.736Z,97056.41
2023-02-19T10:01:32.244Z,97070.34
2023-02-19T10:04:00.350Z,97084.81
2023-02-19T10:06:29.969Z,97084.38
2023-02-19T10:09:12.805Z,97086.97
2023-02-19T10:11:41.398Z,97087.97
2023-02-19T10:14:16.518Z,97096.16
2023-02-19T10:16:47.115Z,97092.38
2023-02-19T10:19:15.985Z,97093.22
2023-02-19T10:21:44.377Z,97099.25
2023-02-19T10:24:21.399Z,97101.53
2023-02-19T10:31:20.547Z,97122.88
2023-02-19T10:33:51.576Z,97124.06
2023-02-19T10:36:29.878Z,97127.72
2023-02-19T10:39:00.599Z,97125.00
2023-02-19T10:41:32.030Z,97127.19
2023-02-19T10:44:06.649Z,97135.56
2023-02-19T10:46:38.782Z,97123.66
2023-02-19T10:49:19.919Z,97136.97
2023-02-19T10:51:49.147Z,97138.53
2023-02-19T10:54:20.407Z,97149.06
2023-02-19T10:56:50.178Z,97147.91
2023-02-19T10:59:25.705Z,97163.28
2023-02-19T11:01:58.940Z,97157.16
2023-02-19T11:04:29.348Z,97155.50
2023-02-19T11:06:58.534Z,97158.81
2023-02-19T11:09:30.918Z,97169.38
2023-02-19T11:12:01.773Z,97172.22
2023-02-19T11:14:31.789Z,97165.81
2023-02-19T11:17:04.325Z,97176.84
2023-02-19T11:19:38.097Z,97175.75
2023-02-19T11:22:21.415Z,97172.78
2023-02-19T11:24:53.052Z,97178.81
2023-02-19T11:27:26.870Z,97186.50
2023-02-19T11:29:55.275Z,97193.22
2023-02-19T11:32:30.126Z,97201.19
2023-02-19T11:35:19.522Z,97193.09
2023-02-19T11:37:59.731Z,97204.09
2023-02-19T11:40:42.170Z,97215.38
2023-02-19T11:43:31.739Z,97211.28
2023-02-19T11:46:09.917Z,97207.19
2023-02-19T11:48:50.144Z,97217.59
2023-02-19T11:51:46.126Z,97228.66
2023-02-19T11:54:32.111Z,97226.03
2023-02-19T11:57:10.240Z,97226.88
2023-02-19T11:59:49.363Z,97229.31
2023-02-19T12:02:40.871Z,97228.97
2023-02-19T12:05:29.742Z,97241.47
2023-02-19T12:08:14.545Z,97243.59
2023-02-19T12:10:58.341Z,97238.53
2023-02-19T12:13:40.633Z,97251.38
2023-02-19T12:16:20.897Z,97254.75
2023-02-19T12:19:05.083Z,97249.16
2023-02-19T12:21:47.789Z,97251.31
2023-02-19T12:25:01.256Z,97251.28
2023-02-19T12:27:45.493Z,97260.59
2023-02-19T12:30:28.183Z,97260.06
2023-02-19T12:33:19.173Z,97263.59
2023-02-19T12:36:04.463Z,97262.13
2023-02-19T12:38:35.194Z,97268.47
2023-02-19T12:41:16.732Z,97271.47
2023-02-19T12:43:53.204Z,97261.25
2023-02-19T12:46:27.359Z,97264.91
2023-02-19T12:49:02.867Z,97260.84
2023-02-19T12:51:40.710Z,97269.16
2023-02-19T12:54:16.061Z,97267.22
2023-02-19T12:56:50.261Z,97257.50
2023-02-19T12:59:26.000Z,97259.50
2023-02-19T13:01:59.399Z,97258.41
2023-02-19T13:04:35.744Z,97252.16
2023-02-19T13:07:10.692Z,97256.75
2023-02-19T13:09:43.767Z,97266.16
2023-02-19T13:12:17.372Z,97259.50
2023-02-19T13:14:49.955Z,97260.72
2023-02-19T13:17:24.881Z,97254.25
2023-02-19T13:19:59.724Z,97250.22
2023-02-19T13:22:52.856Z,97247.56
2023-02-19T13:25:23.617Z,97263.72
2023-02-19T13:28:14.808Z,97266.22
2023-02-19T13:30:59.249Z,97275.59
2023-02-19T13:33:42.297Z,97279.47
2023-02-19T13:36:15.752Z,97281.31
2023-02-19T13:38:46.565Z,97281.13
2023-02-19T13:41:28.047Z,97301.63
2023-02-19T13:43:59.554Z,97303.19
2023-02-19T13:46:38.700Z,97294.28
2023-02-19T13:49:44.573Z,97304.13
2023-02-19T13:52:38.304Z,97311.03
2023-02-19T13:55:44.219Z,97301.81
2023-02-19T13:58:52.122Z,97308.97
2023-02-19T14:01:21.041Z,97304.69
2023-02-19T14:03:54.820Z,97317.72
2023-02-19T14:06:23.062Z,97312.53
2023-02-19T14:08:57.212Z,97316.97
2023-02-19T14:12:05.368Z,97312.94
2023-02-19T14:14:36.880Z,97320.00
2023-02-19T14:17:26.768Z,97319.00
2023-02-19T14:20:04.450Z,97323.00
2023-02-19T14:23:01.867Z,97322.59
2023-02-19T14:25:38.293Z,97327.81
2023-02-19T14:28:15.881Z,97333.38
2023-02-19T14:30:50.351Z,97331.94
2023-02-19T14:33:22.579Z,97342.28
2023-02-19T14:35:55.622Z,97338.72
2023-02-19T14:38:27.478Z,97343.66
2023-02-19T14:40:58.439Z,97340.97
2023-02-19T14:43:29.297Z,97334.16
2023-02-19T14:46:00.298Z,97347.47
2023-02-19T14:48:33.931Z,97352.44
2023-02-19T14:51:06.725Z,97341.84
2023-02-19T14:53:40.610Z,97359.00
2023-02-19T14:56:22.062Z,97360.34
2023-02-19T14:59:23.205Z,97362.81
2023-02-19T15:01:56.176Z,97370.91
2023-02-19T15:04:26.074Z,97374.16
2023-02-19T15:06:57.127Z,97372.81
2023-02-19T15:09:32.420Z,97377.03
2023-02-19T15:12:04.424Z,97387.56
2023-02-19T15:14:34.757Z,97382.09
2023-02-19T15:17:06.567Z,97384.34
2023-02-19T15:19:39.697Z,97385.81
2023-02-19T15:22:08.997Z,97376.81
2023-02-19T15:24:37.749Z,97380.78
2023-02-19T15:27:07.755Z,97379.41
2023-02-19T15:29:35.669Z,97383.88
2023-02-19T15:32:03.848Z,97386.03
2023-02-19T15:34:33.760Z,97395.59
2023-02-19T15:37:05.870Z,97395.19
2023-02-19T15:39:37.190Z,97404.09
2023-02-19T15:42:09.590Z,97404.72
2023-02-19T15:44:50.720Z,97397.38
2023-02-19T15:47:29.356Z,97414.84
2023-02-19T15:50:02.481Z,97422.06
2023-02-19T15:52:38.500Z,97405.84
2023-02-19T15:55:20.809Z,97425.75
2023-02-19T15:57:56.366Z,97426.00
2023-02-19T16:00:30.840Z,97435.84
2023-02-19T16:03:00.098Z,97441.53
2023-02-19T16:05:31.008Z,97439.91
2023-02-19T16:08:18.022Z,97447.09
2023-02-19T16:10:57.373Z,97456.50
2023-02-19T16:13:29.386Z,97458.09
2023-02-19T16:16:02.430Z,97462.66
2023-02-19T16:18:32.031Z,97453.81
2023-02-19T16:21:00.681Z,97456.41
2023-02-19T16:23:29.304Z,97458.03
2023-02-19T16:26:02.355Z,97473.75
2023-02-19T16:28:39.461Z,97484.00
2023-02-19T16:31:10.370Z,97477.63
2023-02-19T16:33:41.984Z,97480.16
2023-02-19T16:36:41.847Z,97488.44
2023-02-19T16:39:18.708Z,97476.47
2023-02-19T16:42:20.958Z,97484.91
2023-02-19T16:44:51.847Z,97487.41
2023-02-19T16:47:34.746Z,97495.50
2023-02-19T16:50:08.959Z,97493.72
2023-02-19T16:52:39.299Z,97497.81
2023-02-19T16:55:14.733Z,97501.03
2023-02-19T16:57:43.203Z,97516.28
2023-02-19T17:00:17.970Z,97515.94
2023-02-19T17:02:48.210Z,97520.91
2023-02-19T17:05:17.346Z,97524.28
2023-02-19T17:07:45.731Z,97523.28
2023-02-19T17:10:17.171Z,97532.16
2023-02-19T17:12:45.254Z,97544.31
2023-02-19T17:15:14.954Z,97534.84
2023-02-19T17:17:43.790Z,97547.31
2023-02-19T17:20:22.794Z,97544.53
2023-02-19T17:22:51.745Z,97554.69
2023-02-19T17:25:20.450Z,97564.31
2023-02-19T17:27:49.074Z,97567.13
2023-02-19T17:30:21.907Z,97573.91
2023-02-19T17:32:50.251Z,97572.81
2023-02-19T17:35:18.679Z,97577.50
2023-02-19T17:37:55.974Z,97582.53
2023-02-19T17:40:33.187Z,97592.06
2023-02-19T17:43:02.256Z,97596.47
2023-02-19T17:45:34.053Z,97600.47
2023-02-19T17:48:02.505Z,97603.31
2023-02-19T17:50:35.094Z,97599.81
2023-02-19T17:53:04.616Z,97605.50
2023-02-19T17:55:33.649Z,97603.59
2023-02-19T17:58:02.658Z,97618.41
2023-02-19T18:00:33.178Z,97613.28
2023-02-19T18:03:01.470Z,97618.16
2023-02-19T18:05:29.658Z,97627.72
2023-02-19T18:07:58.120Z,97626.75
2023-02-19T18:10:26.582Z,97631.38
2023-02-19T18:12:55.086Z,97627.66
2023-02-19T18:15:26.310Z,97633.47
2023-02-19T18:17:57.565Z,97631.59
2023-02-19T18:20:28.315Z,97624.91
2023-02-19T18:22:57.711Z,97628.47
2023-02-19T18:25:26.438Z,97626.72
2023-02-19T18:27:55.306Z,97635.41
2023-02-19T18:30:24.464Z,97630.16
2023-02-19T18:32:53.317Z,97630.44
2023-02-19T18:35:23.175Z,97632.56
2023-02-19T18:37:53.234Z,97644.59
2023-02-19T18:40:21.710Z,97638.19
2023-02-19T18:42:50.437Z,97643.91
2023-02-19T18:45:19.145Z,97651.84
2023-02-19T18:47:48.699Z,97656.81
2023-02-19T18:50:18.107Z,97649.22
2023-02-19T18:52:48.048Z,97656.00
2023-02-19T18:55:16.464Z,97656.81
2023-02-19T18:57:45.347Z,97662.09
2023-02-19T19:00:18.830Z,97651.47
2023-02-19T19:02:50.568Z,97648.09
2023-02-19T19:05:23.147Z,97646.59
2023-02-19T19:07:54.464Z,97651.72
2023-02-19T19:10:23.930Z,97647.47
2023-02-19T19:12:52.318Z,97647.41
2023-02-19T19:15:21.580Z,97649.25
2023-02-19T19:17:49.642Z,97655.16
2023-02-19T19:20:20.728Z,97656.28
2023-02-19T19:22:50.711Z,97651.31
2023-02-19T19:25:21.199Z,97658.97
2023-02-19T19:27:50.899Z,97657.88
2023-02-19T19:30:20.885Z,97655.66
2023-02-19T19:32:49.879Z,97665.81
2023-02-19T19:35:19.012Z,97666.75
2023-02-19T19:37:47.545Z,97668.59
2023-02-19T19:40:17.653Z,97662.38
2023-02-19T19:42:47.875Z,97664.91
2023-02-19T19:45:16.831Z,97666.00
2023-02-19T19:47:45.339Z,97665.16
2023-02-19T19:50:14.639Z,97661.63
2023-02-19T19:52:43.078Z,97658.06
2023-02-19T19:55:11.660Z,97664.38
2023-02-19T19:57:41.011Z,97669.47
2023-02-19T20:00:16.448Z,97666.06
2023-02-19T20:02:44.968Z,97676.69
2023-02-19T20:05:14.139Z,97678.22
2023-02-19T20:07:42.600Z,97682.47
2023-02-19T20:10:13.298Z,97677.41
2023-02-19T20:12:41.812Z,97687.72
2023-02-19T20:15:12.458Z,97684.94
2023-02-19T20:17:40.899Z,97696.38
2023-02-19T20:20:10.536Z,97687.53
2023-02-19T20:22:39.679Z,97694.31
2023-02-19T20:25:08.143Z,97691.47
2023-02-19T20:27:36.502Z,97688.97
2023-02-19T20:30:05.984Z,97691.38
2023-02-19T20:32:35.443Z,97684.59
2023-02-19T20:35:03.453Z,97695.94
2023-02-19T20:37:31.572Z,97706.31
2023-02-19T20:40:00.318Z,97698.69
2023-02-19T20:42:28.540Z,97694.38
2023-02-19T20:44:57.040Z,97691.78
2023-02-19T20:47:25.186Z,97703.06
2023-02-19T20:49:54.532Z,97702.22
2023-02-19T20:52:24.786Z,97702.94
2023-02-19T20:54:55.547Z,97708.31
2023-02-19T20:57:24.389Z,97709.84
2023-02-19T20:59:52.335Z,97714.97
2023-02-19T21:02:22.323Z,97715.06
2023-02-19T21:04:50.913Z,97716.88
2023-02-19T21:07:20.462Z,97720.16
2023-02-19T21:09:49.045Z,97721.34
2023-02-19T21:12:17.778Z,97721.31
2023-02-19T21:14:45.945Z,97723.13
2023-02-19T21:17:14.658Z,97725.69
2023-02-19T21:19:42.905Z,97736.91
2023-02-19T21:22:11.300Z,97733.41
2023-02-19T21:24:41.002Z,97730.75
2023-02-19T21:27:09.646Z,97734.31
2023-02-19T21:29:37.717Z,97732.47
2023-02-19T21:32:06.283Z,97745.41
2023-02-19T21:34:34.714Z,97755.78
2023-02-19T21:37:02.838Z,97758.31
2023-02-19T21:39:32.368Z,97760.13
2023-02-19T21:42:02.804Z,97768.69
2023-02-19T21:44:31.225Z,97760.13
2023-02-19T21:46:59.504Z,97761.00
2023-02-19T21:49:27.607Z,97767.00
2023-02-19T21:51:55.886Z,97769.56
2023-02-19T21:54:25.836Z,97767.88
2023-02-19T21:56:54.842Z,97773.78
2023-02-19T21:59:24.850Z,97761.72
2023-02-19T22:01:53.093Z,97761.66
2023-02-19T22:04:24.571Z,97761.75
2023-02-19T22:06:56.631Z,97756.44
2023-02-19T22:09:24.872Z,97765.97
2023-02-19T22:11:53.118Z,97773.78
2023-02-19T22:14:21.713Z,97768.66
2023-02-19T22:16:51.804Z,97765.19
2023-02-19T22:19:20.381Z,97763.53
2023-02-19T22:21:49.066Z,97772.94
2023-02-19T22:24:19.467Z,97767.81
2023-02-19T22:26:50.771Z,97770.38
2023-02-19T22:29:19.262Z,97770.38
2023-02-19T22:31:47.930Z,97762.53
2023-02-19T22:34:18.347Z,97756.47
2023-02-19T22:36:46.632Z,97758.94
2023-02-19T22:39:18.949Z,97759.84
2023-02-19T22:41:46.891Z,97747.97
2023-02-19T22:44:20.069Z,97746.09
2023-02-19T22:46:50.293Z,97749.66
2023-02-19T22:49:21.016Z,97735.03
2023-02-19T22:51:56.301Z,97737.63
2023-02-19T22:54:27.201Z,97732.47
2023-02-19T22:56:55.707Z,97729.03
2023-02-19T22:59:24.563Z,97728.22
2023-02-19T23:01:53.508Z,97725.63
2023-02-19T23:04:24.403Z,97730.66
2023-02-19T23:06:53.060Z,97730.53
2023-02-19T23:09:24.236Z,97741.16
2023-02-19T23:11:53.339Z,97727.38
2023-02-19T23:14:23.195Z,97728.19
2023-02-19T23:16:51.164Z,97717.84
2023-02-19T23:19:19.649Z,97715.94
2023-02-19T23:21:49.760Z,97707.38
2023-02-19T23:24:18.453Z,97710.03
2023-02-19T23:26:47.682Z,97696.22
2023-02-19T23:29:17.490Z,97689.31
2023-02-19T23:31:46.100Z,97688.38
2023-02-19T23:34:14.951Z,97691.09
2023-02-19T23:36:43.464Z,97684.97
2023-02-19T23:39:14.673Z,97688.44
2023-02-19T23:41:47.900Z,97676.47
2023-02-19T23:44:16.899Z,97677.31
2023-02-19T23:46:46.686Z,97673.03
2023-02-19T23:49:15.368Z,97672.06
2023-02-19T23:51:43.468Z,97674.69
2023-02-19T23:54:13.678Z,97673.84
2023-02-19T23:56:42.302Z,97673.00
2023-02-19T23:59:10.805Z,97662.59
